Time;durP1;ratioP1;P1;durP2;ratioP2;P2;SDS_P1;SDS_P2;PMS_P1;PMS_P2;Temp;Humidity;BMP_temperature;BMP_pressure;BME280_temperature;BME280_humidity;BME280_pressure;Samples;Min_cycle;Max_cycle;Signal;HPM_P1;HPM_P2
2022/10/14 00:01:16;;;;;;;22.70;14.38;;;12.60;77.70;;;;;;5014884;28;20556;-17
2022/10/14 00:03:42;;;;;;;25.73;17.05;;;12.60;77.50;;;;;;5015565;28;20033;-15
2022/10/14 00:06:15;;;;;;;30.10;18.17;;;12.50;77.90;;;;;;5014849;28;20029;-15
2022/10/14 00:08:42;;;;;;;26.75;18.85;;;12.50;78.00;;;;;;5015137;28;20034;-16
2022/10/14 00:11:11;;;;;;;23.23;16.02;;;12.50;78.30;;;;;;5014789;28;20030;-17
2022/10/14 00:13:37;;;;;;;22.25;15.05;;;12.40;78.30;;;;;;5015339;28;20022;-17
2022/10/14 00:16:06;;;;;;;23.13;15.38;;;12.40;78.10;;;;;;5014670;28;20493;-17
2022/10/14 00:18:32;;;;;;;38.80;23.13;;;12.40;78.00;;;;;;5015135;28;20085;-14
2022/10/14 00:21:01;;;;;;;25.02;16.67;;;12.40;78.00;;;;;;5014524;28;20036;-17
2022/10/14 00:23:27;;;;;;;26.70;17.10;;;12.40;78.10;;;;;;5014635;28;20029;-16
2022/10/14 00:25:53;;;;;;;29.52;17.35;;;12.30;78.10;;;;;;5014900;28;20037;-15
2022/10/14 00:28:19;;;;;;;30.98;18.42;;;12.30;78.20;;;;;;5015190;28;20053;-16
2022/10/14 00:30:56;;;;;;;31.52;19.17;;;12.30;78.20;;;;;;4993622;28;20069;-17
2022/10/14 00:33:23;;;;;;;33.35;19.85;;;12.20;78.20;;;;;;4995182;28;20030;-17
2022/10/14 00:36:01;;;;;;;34.33;22.50;;;12.20;78.30;;;;;;4995140;28;20076;-17
2022/10/14 00:38:28;;;;;;;33.22;21.40;;;12.10;78.30;;;;;;4994386;28;20022;-14
2022/10/14 00:40:55;;;;;;;25.00;16.90;;;12.10;78.60;;;;;;4994570;28;20110;-14
2022/10/14 00:43:23;;;;;;;27.38;16.98;;;12.00;78.50;;;;;;4995203;28;20110;-16
2022/10/14 00:45:49;;;;;;;28.02;17.73;;;12.00;78.50;;;;;;4994754;28;20471;-16
2022/10/14 00:48:18;;;;;;;35.55;23.08;;;12.00;78.60;;;;;;4994797;28;20394;-15
2022/10/14 00:50:48;;;;;;;30.85;18.88;;;11.90;78.80;;;;;;4994230;28;20075;-16
2022/10/14 00:53:14;;;;;;;26.27;17.25;;;11.90;79.00;;;;;;4994497;28;20113;-15
2022/10/14 00:55:41;;;;;;;28.98;18.52;;;11.90;79.10;;;;;;4994550;28;20062;-18
2022/10/14 00:58:08;;;;;;;32.40;21.30;;;11.80;78.90;;;;;;4994456;28;20027;-15
2022/10/14 01:00:35;;;;;;;34.30;21.67;;;11.70;78.80;;;;;;4994315;28;20030;-15
2022/10/14 01:03:16;;;;;;;32.58;20.00;;;11.70;79.10;;;;;;4994426;28;20105;-15
2022/10/14 01:06:00;;;;;;;34.50;21.27;;;11.70;79.10;;;;;;4994264;28;20022;-17
2022/10/14 01:08:30;;;;;;;30.65;18.67;;;11.70;79.20;;;;;;4994684;28;20049;-16
2022/10/14 01:11:21;;;;;;;28.83;16.77;;;11.70;79.60;;;;;;4993890;28;20034;-15
2022/10/14 01:14:14;;;;;;;29.67;18.58;;;11.70;79.40;;;;;;4994493;28;20034;-16
2022/10/14 01:17:17;;;;;;;22.47;15.23;;;11.70;79.40;;;;;;4994681;28;20058;-16
2022/10/14 01:20:05;;;;;;;21.95;13.48;;;11.70;79.40;;;;;;4994173;28;20110;-17
2022/10/14 01:22:52;;;;;;;31.15;18.77;;;11.60;79.20;;;;;;4992890;28;20430;-15
2022/10/14 01:25:55;;;;;;;22.92;14.68;;;11.60;79.40;;;;;;4994348;28;20030;-17
2022/10/14 01:28:27;;;;;;;24.63;15.68;;;11.60;79.30;;;;;;4994264;28;20501;-16
2022/10/14 01:31:02;;;;;;;20.85;13.13;;;11.50;79.60;;;;;;5009526;28;20092;-16
2022/10/14 01:33:37;;;;;;;17.77;12.35;;;11.50;79.20;;;;;;5013905;28;20025;-17
2022/10/14 01:36:28;;;;;;;28.58;16.85;;;11.50;79.00;;;;;;5013541;28;20030;-17
2022/10/14 01:39:19;;;;;;;20.58;14.32;;;11.50;79.10;;;;;;5013425;28;20023;-15
2022/10/14 01:41:52;;;;;;;20.95;12.98;;;11.40;79.00;;;;;;5013717;28;20026;-16
2022/10/14 01:44:22;;;;;;;18.73;13.30;;;11.40;79.00;;;;;;5013461;28;20018;-16
2022/10/14 01:46:52;;;;;;;18.65;11.73;;;11.40;79.10;;;;;;5013220;28;20112;-18
2022/10/14 01:49:43;;;;;;;14.38;10.65;;;11.40;79.00;;;;;;5013706;28;20018;-16
2022/10/14 01:52:21;;;;;;;16.40;11.20;;;11.30;79.00;;;;;;5013633;28;20474;-16
2022/10/14 01:54:54;;;;;;;17.92;12.52;;;11.30;78.90;;;;;;5013159;28;20022;-16
2022/10/14 01:57:25;;;;;;;18.95;13.23;;;11.30;78.80;;;;;;5013352;28;20521;-17
2022/10/14 01:59:53;;;;;;;22.52;14.00;;;11.20;78.90;;;;;;5013289;28;20498;-15
2022/10/14 02:02:20;;;;;;;24.95;15.35;;;11.20;79.00;;;;;;5014246;28;20038;-16
2022/10/14 02:04:46;;;;;;;24.48;15.43;;;11.20;79.30;;;;;;5017386;28;20056;-18
2022/10/14 02:07:51;;;;;;;31.50;20.08;;;11.20;79.40;;;;;;4999649;28;20425;-17
2022/10/14 02:10:39;;;;;;;22.67;14.40;;;11.10;79.40;;;;;;5017345;28;20026;-16
2022/10/14 02:13:36;;;;;;;25.73;16.60;;;11.00;79.30;;;;;;5016938;28;20030;-16
2022/10/14 02:16:09;;;;;;;25.02;14.18;;;11.00;79.30;;;;;;5016971;28;20041;-16
2022/10/14 02:18:40;;;;;;;22.63;14.32;;;11.00;79.50;;;;;;5017397;28;20093;-16
2022/10/14 02:21:21;;;;;;;32.58;20.08;;;11.00;79.50;;;;;;5016815;28;20029;-18
2022/10/14 02:24:10;;;;;;;33.75;20.85;;;10.90;79.60;;;;;;5016955;28;20402;-16
2022/10/14 02:26:38;;;;;;;30.27;18.42;;;11.00;79.60;;;;;;5016808;28;20041;-15
2022/10/14 02:29:05;;;;;;;25.65;14.70;;;10.90;79.60;;;;;;5016323;28;20040;-16
2022/10/14 02:31:34;;;;;;;28.23;16.20;;;10.90;79.70;;;;;;5016936;28;20113;-17
2022/10/14 02:34:06;;;;;;;25.50;16.48;;;10.90;79.80;;;;;;5017099;28;20022;-17
2022/10/14 02:36:35;;;;;;;24.52;14.35;;;10.90;79.90;;;;;;5017050;28;20100;-17
2022/10/14 02:39:03;;;;;;;26.75;15.07;;;10.90;79.90;;;;;;5016381;28;20034;-17
2022/10/14 02:41:34;;;;;;;22.00;14.15;;;11.00;80.00;;;;;;5016884;28;20026;-16
2022/10/14 02:44:00;;;;;;;23.85;14.23;;;11.00;79.90;;;;;;5016617;28;20026;-16
2022/10/14 02:46:27;;;;;;;23.95;15.48;;;11.00;79.90;;;;;;5016359;28;20133;-16
2022/10/14 02:48:53;;;;;;;24.38;15.65;;;11.00;80.30;;;;;;5016550;28;20048;-16
2022/10/14 02:51:19;;;;;;;23.27;14.48;;;11.00;80.50;;;;;;5016419;28;20563;-16
2022/10/14 02:53:45;;;;;;;30.38;18.13;;;11.00;80.50;;;;;;5017141;28;20026;-17
2022/10/14 02:56:16;;;;;;;25.00;14.57;;;11.00;80.30;;;;;;5017193;28;20466;-17
2022/10/14 02:58:42;;;;;;;27.60;17.67;;;11.00;80.30;;;;;;5016568;28;20033;-16
2022/10/14 03:01:08;;;;;;;33.53;18.20;;;11.00;80.40;;;;;;5016016;28;20046;-16
2022/10/14 03:03:34;;;;;;;22.10;14.18;;;11.00;80.60;;;;;;5016170;28;20129;-17
2022/10/14 03:06:00;;;;;;;24.42;14.55;;;10.90;80.90;;;;;;5016384;28;20052;-17
2022/10/14 03:08:27;;;;;;;16.25;11.35;;;10.90;80.60;;;;;;5016379;28;20040;-15
2022/10/14 03:10:53;;;;;;;24.38;14.88;;;10.90;80.40;;;;;;5016435;28;20101;-17
2022/10/14 03:13:18;;;;;;;17.10;11.18;;;10.90;80.60;;;;;;5015792;28;20076;-16
2022/10/14 03:15:49;;;;;;;18.05;11.15;;;10.90;80.40;;;;;;5015986;28;20030;-16
2022/10/14 03:18:16;;;;;;;18.27;12.05;;;10.80;80.20;;;;;;5015905;28;20045;-17
2022/10/14 03:20:45;;;;;;;21.42;12.60;;;10.80;80.10;;;;;;5015827;28;20033;-17
2022/10/14 03:23:13;;;;;;;20.45;11.05;;;10.80;80.30;;;;;;5015695;28;20509;-18
2022/10/14 03:25:39;;;;;;;22.35;14.65;;;10.80;80.20;;;;;;5015704;28;20026;-17
2022/10/14 03:28:05;;;;;;;23.33;14.48;;;10.80;80.00;;;;;;5016115;28;20105;-15
2022/10/14 03:30:31;;;;;;;19.02;12.57;;;10.70;80.20;;;;;;5015436;28;20406;-16
2022/10/14 03:32:57;;;;;;;21.90;14.13;;;10.60;80.40;;;;;;5015418;28;20117;-17
2022/10/14 03:35:23;;;;;;;25.83;15.63;;;10.60;80.60;;;;;;5015522;28;20022;-16
2022/10/14 03:37:52;;;;;;;22.83;13.23;;;10.50;80.20;;;;;;5015536;28;20113;-17
2022/10/14 03:40:18;;;;;;;21.95;12.75;;;10.50;80.30;;;;;;5015773;28;20045;-16
2022/10/14 03:42:44;;;;;;;18.27;11.57;;;10.50;80.30;;;;;;4997940;28;20030;-17
2022/10/14 03:45:10;;;;;;;22.08;12.35;;;10.50;80.30;;;;;;5015400;28;20069;-15
2022/10/14 03:47:36;;;;;;;24.90;14.52;;;10.50;80.20;;;;;;5015583;28;20430;-16
2022/10/14 03:50:04;;;;;;;26.55;15.40;;;10.40;80.30;;;;;;5015293;28;20386;-16
2022/10/14 03:52:31;;;;;;;30.17;16.00;;;10.40;80.40;;;;;;5015528;28;20026;-15
2022/10/14 03:54:57;;;;;;;26.88;15.30;;;10.40;80.20;;;;;;5014963;28;20045;-17
2022/10/14 03:57:23;;;;;;;29.30;16.73;;;10.40;80.50;;;;;;5015238;28;20548;-17
2022/10/14 03:59:49;;;;;;;25.55;15.68;;;10.40;80.60;;;;;;5015400;28;20038;-16
2022/10/14 04:02:15;;;;;;;22.15;11.82;;;10.40;80.90;;;;;;5014994;28;20087;-17
2022/10/14 04:04:41;;;;;;;22.80;13.75;;;10.40;80.80;;;;;;5015348;28;20034;-16
2022/10/14 04:07:07;;;;;;;23.38;13.75;;;10.40;80.50;;;;;;5014641;28;20112;-17
2022/10/14 04:09:33;;;;;;;20.45;12.57;;;10.40;80.60;;;;;;5015771;28;20112;-17
2022/10/14 04:11:59;;;;;;;23.35;12.95;;;10.40;80.50;;;;;;5014901;28;20109;-17
2022/10/14 04:14:25;;;;;;;21.52;12.52;;;10.40;80.70;;;;;;5015163;28;20076;-16
2022/10/14 04:16:52;;;;;;;22.42;12.80;;;10.50;80.70;;;;;;5014857;28;20022;-18
2022/10/14 04:19:18;;;;;;;27.95;13.68;;;10.50;80.60;;;;;;5014763;28;20037;-17
2022/10/14 04:21:44;;;;;;;21.40;12.73;;;10.50;80.60;;;;;;5014969;28;20030;-16
2022/10/14 04:24:11;;;;;;;19.50;11.32;;;10.60;80.70;;;;;;5014802;28;20033;-16
2022/10/14 04:26:37;;;;;;;20.35;12.50;;;10.50;80.40;;;;;;5013523;28;20030;-17
2022/10/14 04:29:03;;;;;;;24.73;11.00;;;10.50;80.40;;;;;;5014053;28;20026;-15
2022/10/14 04:31:29;;;;;;;22.83;13.73;;;10.50;80.20;;;;;;5014911;28;20089;-17
2022/10/14 04:33:56;;;;;;;25.95;13.73;;;10.50;80.30;;;;;;5014502;28;20441;-17
2022/10/14 04:36:22;;;;;;;18.98;10.23;;;10.50;80.50;;;;;;5014529;28;20021;-18
2022/10/14 04:38:48;;;;;;;21.27;12.50;;;10.40;80.20;;;;;;5014230;28;20029;-18
2022/10/14 04:41:14;;;;;;;21.27;12.45;;;10.40;80.30;;;;;;5014229;28;20041;-17
2022/10/14 04:43:40;;;;;;;22.25;13.52;;;10.40;80.40;;;;;;5014339;28;20026;-17
2022/10/14 04:46:06;;;;;;;30.70;16.77;;;10.40;80.30;;;;;;5014039;28;20033;-17
2022/10/14 04:48:31;;;;;;;27.85;15.15;;;10.40;80.50;;;;;;5014669;28;20041;-17
2022/10/14 04:50:57;;;;;;;18.95;10.95;;;10.30;80.60;;;;;;5014301;28;20036;-15
2022/10/14 04:53:23;;;;;;;20.45;11.07;;;10.30;80.50;;;;;;5014644;28;20508;-16
2022/10/14 04:55:50;;;;;;;21.52;11.73;;;10.30;80.70;;;;;;5014328;28;20104;-18
2022/10/14 04:58:16;;;;;;;21.00;12.45;;;10.30;80.40;;;;;;5014361;28;20022;-18
2022/10/14 05:00:42;;;;;;;20.80;12.23;;;10.30;80.60;;;;;;5014212;28;20060;-16
2022/10/14 05:03:08;;;;;;;24.77;13.18;;;10.20;80.50;;;;;;5013822;28;20034;-17
2022/10/14 05:05:34;;;;;;;24.05;13.13;;;10.20;80.50;;;;;;5014376;28;20101;-17
2022/10/14 05:08:00;;;;;;;24.65;13.02;;;10.20;80.60;;;;;;5014121;28;20036;-17
2022/10/14 05:10:26;;;;;;;20.20;12.25;;;10.20;80.70;;;;;;5014093;28;20058;-17
2022/10/14 05:12:52;;;;;;;19.77;11.07;;;10.20;80.70;;;;;;5013665;28;20111;-16
2022/10/14 05:15:18;;;;;;;18.85;10.13;;;10.20;80.40;;;;;;5014208;28;20026;-22
2022/10/14 05:17:44;;;;;;;19.92;11.85;;;10.10;80.50;;;;;;5013774;28;20064;-18
2022/10/14 05:20:11;;;;;;;31.13;16.23;;;10.10;80.60;;;;;;4996154;28;20061;-17
2022/10/14 05:22:37;;;;;;;27.15;14.80;;;10.20;80.60;;;;;;5013991;28;20108;-16
2022/10/14 05:25:03;;;;;;;28.63;15.70;;;10.10;80.50;;;;;;5013727;28;20029;-17
2022/10/14 05:27:30;;;;;;;22.23;13.05;;;10.10;80.60;;;;;;5013532;28;20124;-16
2022/10/14 05:29:55;;;;;;;24.60;12.27;;;10.10;80.70;;;;;;4996306;28;20140;-17
2022/10/14 05:32:21;;;;;;;37.35;17.42;;;10.10;80.70;;;;;;5013593;28;20108;-17
2022/10/14 05:34:47;;;;;;;30.27;15.32;;;10.00;80.80;;;;;;5013466;28;20030;-17
2022/10/14 05:37:13;;;;;;;38.25;17.30;;;10.00;80.90;;;;;;5013420;28;20018;-18
2022/10/14 05:39:39;;;;;;;24.85;15.07;;;10.00;81.00;;;;;;5013456;28;20033;-17
2022/10/14 05:42:05;;;;;;;34.30;16.52;;;10.00;80.90;;;;;;5013343;28;20033;-18
2022/10/14 05:44:31;;;;;;;24.77;13.75;;;10.00;80.90;;;;;;5013960;28;20037;-17
2022/10/14 05:46:57;;;;;;;31.58;14.40;;;10.00;80.90;;;;;;5013012;28;20498;-16
2022/10/14 05:49:23;;;;;;;33.38;16.73;;;10.00;81.00;;;;;;5013339;28;20068;-17
2022/10/14 05:51:49;;;;;;;43.30;16.02;;;10.10;81.10;;;;;;5013226;28;20022;-17
2022/10/14 05:54:15;;;;;;;27.77;13.82;;;10.20;81.20;;;;;;5013507;28;20041;-18
2022/10/14 05:56:41;;;;;;;26.70;14.82;;;10.30;81.20;;;;;;5013446;28;20029;-16
2022/10/14 05:59:09;;;;;;;26.42;14.00;;;10.30;81.00;;;;;;5013049;28;20054;-17
2022/10/14 06:01:37;;;;;;;28.85;14.57;;;10.40;80.90;;;;;;5013460;28;20021;-18
2022/10/14 06:04:04;;;;;;;26.95;13.52;;;10.50;80.90;;;;;;5013492;28;20038;-16
2022/10/14 06:06:29;;;;;;;24.48;12.85;;;10.60;80.80;;;;;;5013435;28;20032;-17
2022/10/14 06:08:55;;;;;;;25.23;13.30;;;10.70;81.00;;;;;;5013228;28;20033;-18
2022/10/14 06:11:22;;;;;;;31.85;16.35;;;10.90;81.10;;;;;;5013199;28;20030;-16
2022/10/14 06:13:47;;;;;;;33.67;16.40;;;10.90;81.50;;;;;;5013377;28;20382;-16
2022/10/14 06:16:13;;;;;;;26.95;13.85;;;11.00;81.10;;;;;;5013002;28;20489;-18
2022/10/14 06:18:40;;;;;;;31.23;17.42;;;11.10;81.00;;;;;;5013263;28;20037;-16
2022/10/14 06:21:06;;;;;;;28.33;15.45;;;11.20;81.00;;;;;;5013196;28;20033;-17
2022/10/14 06:23:32;;;;;;;29.60;14.85;;;11.40;81.10;;;;;;5013343;28;20037;-17
2022/10/14 06:25:58;;;;;;;25.95;13.43;;;11.50;81.20;;;;;;4995419;28;20394;-15
2022/10/14 06:28:25;;;;;;;26.40;14.63;;;11.70;81.20;;;;;;5012996;28;20037;-16
2022/10/14 06:30:52;;;;;;;31.38;14.57;;;11.90;81.20;;;;;;5012597;28;20061;-17
2022/10/14 06:33:18;;;;;;;21.98;12.57;;;12.00;81.10;;;;;;5012945;28;20486;-17
2022/10/14 06:35:45;;;;;;;31.20;19.23;;;12.30;81.10;;;;;;5013323;28;20065;-16
2022/10/14 06:38:11;;;;;;;21.25;14.27;;;12.40;81.00;;;;;;5012896;28;20022;-17
2022/10/14 06:40:37;;;;;;;24.00;15.27;;;12.70;80.80;;;;;;4995300;28;20041;-18
2022/10/14 06:43:03;;;;;;;26.08;16.00;;;12.80;80.70;;;;;;5012622;28;20032;-17
2022/10/14 06:45:29;;;;;;;25.35;15.02;;;13.10;80.60;;;;;;5012699;28;20028;-17
2022/10/14 06:47:56;;;;;;;24.40;14.15;;;13.40;80.30;;;;;;5013081;28;20513;-18
2022/10/14 06:50:22;;;;;;;21.65;13.02;;;13.60;80.00;;;;;;5015321;28;20398;-17
2022/10/14 06:52:48;;;;;;;24.55;16.05;;;13.90;79.90;;;;;;5016375;28;20030;-18
2022/10/14 06:55:15;;;;;;;23.73;14.50;;;14.10;79.50;;;;;;5016686;28;20030;-16
2022/10/14 06:57:41;;;;;;;30.77;17.02;;;14.30;79.00;;;;;;5016684;28;20026;-17
2022/10/14 07:00:08;;;;;;;31.35;16.63;;;14.40;78.50;;;;;;5016243;28;20037;-17
2022/10/14 07:02:34;;;;;;;27.35;16.20;;;14.50;78.40;;;;;;5016129;28;20550;-18
2022/10/14 07:05:00;;;;;;;28.92;16.85;;;14.60;78.10;;;;;;5016266;28;20029;-18
2022/10/14 07:07:26;;;;;;;24.55;15.85;;;14.70;77.90;;;;;;5016047;28;20509;-18
2022/10/14 07:09:52;;;;;;;23.10;13.88;;;14.80;77.30;;;;;;5016527;28;20033;-17
2022/10/14 07:12:18;;;;;;;23.77;15.18;;;15.00;77.80;;;;;;5016347;28;20033;-17
2022/10/14 07:14:44;;;;;;;19.70;12.82;;;15.40;77.70;;;;;;5016309;28;20040;-16
2022/10/14 07:17:10;;;;;;;28.48;16.23;;;15.70;76.80;;;;;;4998292;28;20017;-17
2022/10/14 07:19:36;;;;;;;24.15;15.23;;;15.90;75.70;;;;;;5016545;28;20069;-16
2022/10/14 07:22:03;;;;;;;18.15;11.85;;;16.20;75.20;;;;;;5015863;28;20021;-16
2022/10/14 07:24:29;;;;;;;23.80;15.30;;;16.50;75.00;;;;;;5015850;28;20030;-17
2022/10/14 07:26:55;;;;;;;22.60;12.25;;;16.80;74.10;;;;;;5015494;28;20030;-16
2022/10/14 07:29:21;;;;;;;19.67;11.93;;;17.10;72.90;;;;;;5015781;28;20046;-17
2022/10/14 07:31:47;;;;;;;26.98;16.15;;;17.30;72.70;;;;;;5016145;28;20026;-16
2022/10/14 07:34:13;;;;;;;23.40;14.30;;;17.50;72.10;;;;;;5015934;28;20486;-16
2022/10/14 07:36:39;;;;;;;24.83;15.15;;;17.60;71.10;;;;;;5015606;28;20474;-17
2022/10/14 07:39:05;;;;;;;24.08;14.93;;;17.70;70.40;;;;;;5015652;28;20106;-17
2022/10/14 07:41:32;;;;;;;24.52;15.10;;;17.80;70.90;;;;;;5015419;28;20041;-15
2022/10/14 07:44:04;;;;;;;21.38;13.93;;;17.90;70.30;;;;;;5015557;28;20109;-15
2022/10/14 07:46:33;;;;;;;25.05;14.98;;;17.80;70.70;;;;;;5015534;28;20030;-17
2022/10/14 07:49:02;;;;;;;22.42;13.27;;;17.90;70.50;;;;;;5015276;28;20160;-15
2022/10/14 07:51:28;;;;;;;25.75;16.92;;;17.90;71.00;;;;;;5015617;28;20036;-15
2022/10/14 07:53:57;;;;;;;22.75;14.75;;;18.20;70.30;;;;;;5015221;28;20080;-15
2022/10/14 07:56:24;;;;;;;29.65;16.35;;;18.40;69.90;;;;;;5015208;28;20022;-15
2022/10/14 07:58:50;;;;;;;28.20;16.73;;;18.50;68.60;;;;;;5015035;28;20033;-15
2022/10/14 08:01:17;;;;;;;27.98;16.70;;;18.60;68.30;;;;;;5015507;28;20028;-15
2022/10/14 08:03:46;;;;;;;21.60;14.45;;;18.50;67.80;;;;;;5015069;28;20033;-17
2022/10/14 08:06:12;;;;;;;25.33;16.30;;;18.50;68.10;;;;;;5015276;28;20129;-14
2022/10/14 08:08:40;;;;;;;30.27;19.40;;;18.50;68.20;;;;;;5015015;28;20025;-16
2022/10/14 08:11:09;;;;;;;25.35;16.42;;;18.80;67.20;;;;;;5014739;28;20034;-15
2022/10/14 08:13:36;;;;;;;29.27;18.15;;;19.00;67.30;;;;;;5015229;28;20023;-14
2022/10/14 08:16:02;;;;;;;28.60;18.13;;;19.30;66.80;;;;;;5015111;28;20021;-15
2022/10/14 08:18:29;;;;;;;23.48;16.52;;;19.60;65.50;;;;;;5014830;28;20509;-13
2022/10/14 08:20:55;;;;;;;27.73;18.33;;;19.90;65.50;;;;;;5014901;28;20021;-15
2022/10/14 08:23:21;;;;;;;31.63;19.70;;;20.10;63.60;;;;;;5014748;28;20390;-14
2022/10/14 08:25:48;;;;;;;28.20;18.67;;;20.30;62.10;;;;;;5014510;28;20029;-15
2022/10/14 08:28:14;;;;;;;29.83;19.30;;;20.40;62.80;;;;;;5014913;28;20026;-15
2022/10/14 08:30:40;;;;;;;31.38;19.48;;;20.60;61.80;;;;;;5014261;28;20057;-15
2022/10/14 08:33:06;;;;;;;32.45;21.13;;;20.90;61.50;;;;;;5014680;28;20029;-15
2022/10/14 08:35:32;;;;;;;30.63;19.60;;;21.20;59.70;;;;;;4997408;28;20310;-15
2022/10/14 08:37:59;;;;;;;29.63;19.73;;;21.40;58.30;;;;;;5015073;28;20021;-15
2022/10/14 08:40:28;;;;;;;32.92;21.25;;;21.60;59.30;;;;;;5014744;28;20029;-15
2022/10/14 08:43:12;;;;;;;29.90;20.52;;;21.80;57.10;;;;;;5014484;28;20508;-14
2022/10/14 08:45:46;;;;;;;30.70;20.98;;;21.90;57.60;;;;;;5014248;28;20030;-15
2022/10/14 08:48:18;;;;;;;31.80;22.63;;;22.20;56.30;;;;;;5014265;28;20577;-17
2022/10/14 08:50:53;;;;;;;33.67;22.55;;;22.30;56.30;;;;;;5014398;28;20068;-15
2022/10/14 08:53:27;;;;;;;35.55;23.20;;;22.40;56.20;;;;;;5014264;28;20026;-14
2022/10/14 08:56:00;;;;;;;33.65;23.42;;;22.50;55.50;;;;;;5014608;28;20030;-15
2022/10/14 08:58:32;;;;;;;33.03;21.77;;;22.60;54.40;;;;;;5014799;28;20022;-15
2022/10/14 09:01:04;;;;;;;34.72;23.67;;;22.80;55.40;;;;;;5013759;28;20129;-15
2022/10/14 09:03:35;;;;;;;27.98;20.00;;;22.90;54.70;;;;;;5014357;28;20050;-15
2022/10/14 09:06:05;;;;;;;25.60;19.45;;;23.00;53.80;;;;;;5013946;28;20037;-15
2022/10/14 09:08:40;;;;;;;28.27;20.23;;;23.20;53.90;;;;;;5014185;28;20026;-15
2022/10/14 09:11:17;;;;;;;43.42;24.55;;;23.40;53.60;;;;;;5013724;28;20080;-15
2022/10/14 09:13:48;;;;;;;32.15;20.95;;;23.60;52.30;;;;;;5013517;28;20030;-15
2022/10/14 09:16:24;;;;;;;29.00;19.70;;;23.80;53.10;;;;;;5013752;28;20045;-15
2022/10/14 09:18:59;;;;;;;26.25;18.77;;;24.10;52.60;;;;;;5013856;28;20429;-14
2022/10/14 09:21:28;;;;;;;36.63;23.40;;;24.40;52.30;;;;;;5013755;28;20072;-14
2022/10/14 09:24:02;;;;;;;29.75;21.67;;;24.50;51.90;;;;;;5014188;28;20030;-14
2022/10/14 09:26:41;;;;;;;27.17;19.65;;;24.40;51.60;;;;;;5013665;28;20049;-15
2022/10/14 09:29:27;;;;;;;27.05;18.33;;;24.40;50.90;;;;;;5013470;28;20041;-15
2022/10/14 09:32:01;;;;;;;23.15;17.02;;;24.50;51.80;;;;;;5013891;28;20041;-14
2022/10/14 09:34:48;;;;;;;27.90;18.08;;;24.80;51.90;;;;;;5013906;28;20026;-14
2022/10/14 09:37:29;;;;;;;26.10;19.90;;;25.10;51.00;;;;;;5013572;28;20474;-15
2022/10/14 09:40:07;;;;;;;28.77;20.42;;;25.30;48.50;;;;;;5014347;28;20568;-15
2022/10/14 09:43:06;;;;;;;29.58;19.95;;;25.40;50.10;;;;;;5013366;28;20556;-16
2022/10/14 09:46:17;;;;;;;26.05;17.70;;;25.50;49.60;;;;;;5013693;28;20037;-15
2022/10/14 09:48:47;;;;;;;23.65;18.25;;;25.90;48.00;;;;;;5011390;28;20048;-17
2022/10/14 09:51:21;;;;;;;25.95;18.25;;;26.10;48.70;;;;;;5013852;28;20030;-15
2022/10/14 09:53:55;;;;;;;31.83;22.38;;;26.20;48.50;;;;;;5013621;28;20033;-15
2022/10/14 09:56:41;;;;;;;27.67;18.15;;;26.40;48.10;;;;;;5013359;28;20038;-16
2022/10/14 09:59:18;;;;;;;27.77;19.80;;;26.40;48.20;;;;;;5013149;28;20025;-16
2022/10/14 10:02:16;;;;;;;25.05;17.67;;;26.40;47.80;;;;;;5013233;28;20397;-14
2022/10/14 10:04:46;;;;;;;29.92;20.77;;;26.40;48.10;;;;;;4997489;28;20489;-15
2022/10/14 10:07:32;;;;;;;30.38;23.13;;;26.60;45.20;;;;;;4995529;28;20174;-15
2022/10/14 10:10:03;;;;;;;24.17;19.42;;;26.50;46.30;;;;;;5014038;28;20105;-14
2022/10/14 10:12:34;;;;;;;25.63;19.15;;;26.30;47.10;;;;;;5013175;28;20382;-14
2022/10/14 10:15:04;;;;;;;23.38;17.90;;;25.90;47.50;;;;;;5013581;28;20026;-15
2022/10/14 10:17:37;;;;;;;27.92;19.52;;;25.80;48.40;;;;;;5013013;28;20125;-16
2022/10/14 10:20:26;;;;;;;27.63;20.58;;;25.90;48.30;;;;;;5013756;28;20022;-14
2022/10/14 10:22:55;;;;;;;27.65;20.08;;;26.10;46.50;;;;;;5013255;28;20076;-15
2022/10/14 10:25:27;;;;;;;25.48;18.70;;;26.40;47.30;;;;;;5016956;28;20069;-15
2022/10/14 10:27:56;;;;;;;25.55;19.20;;;26.70;46.60;;;;;;5017156;28;20133;-14
2022/10/14 10:30:26;;;;;;;26.70;19.67;;;27.00;45.40;;;;;;5016770;28;20085;-15
2022/10/14 10:33:01;;;;;;;24.98;18.30;;;27.40;45.30;;;;;;5016809;28;20026;-15
2022/10/14 10:36:04;;;;;;;23.77;17.52;;;27.80;44.70;;;;;;5017127;28;20033;-15
2022/10/14 10:38:56;;;;;;;22.85;17.48;;;28.20;42.70;;;;;;5016788;28;20025;-15
2022/10/14 10:41:41;;;;;;;25.27;17.77;;;28.70;43.00;;;;;;5017020;28;20029;-15
2022/10/14 10:44:31;;;;;;;20.55;17.15;;;29.10;41.90;;;;;;5016661;28;20053;-15
2022/10/14 10:47:10;;;;;;;24.17;18.95;;;29.30;40.90;;;;;;5016337;28;20041;-15
2022/10/14 10:49:42;;;;;;;24.33;18.88;;;29.50;38.40;;;;;;5016801;28;20390;-15
2022/10/14 10:52:07;;;;;;;26.63;20.48;;;29.70;40.40;;;;;;5016423;28;20437;-14
2022/10/14 10:54:49;;;;;;;29.58;20.55;;;29.70;40.30;;;;;;5016384;28;20030;-15
2022/10/14 10:57:39;;;;;;;22.40;17.48;;;29.60;40.40;;;;;;5016703;28;20034;-14
2022/10/14 11:00:10;;;;;;;30.33;21.90;;;29.60;40.40;;;;;;5016284;28;20110;-15
2022/10/14 11:02:50;;;;;;;29.42;21.13;;;29.90;37.00;;;;;;5016507;28;20052;-16
2022/10/14 11:05:16;;;;;;;23.92;18.55;;;29.90;38.10;;;;;;5016227;28;20034;-16
2022/10/14 11:14:32;;;;;;;23.25;17.80;;;29.90;38.80;;;;;;5016454;28;20060;-15
2022/10/14 11:17:30;;;;;;;21.85;17.98;;;30.00;38.10;;;;;;5015942;28;20026;-15
2022/10/14 11:20:23;;;;;;;23.85;18.10;;;30.20;37.40;;;;;;5016207;28;20382;-15
2022/10/14 11:23:34;;;;;;;21.52;17.45;;;30.40;35.90;;;;;;5015616;28;20045;-15
2022/10/14 11:26:06;;;;;;;21.02;16.98;;;30.50;37.80;;;;;;4974635;28;20037;-15
2022/10/14 11:29:19;;;;;;;22.95;17.27;;;30.80;37.70;;;;;;4974840;28;20035;-14
2022/10/14 11:32:17;;;;;;;25.13;18.03;;;31.20;36.60;;;;;;4917294;29;20107;-14
2022/10/14 11:34:51;;;;;;;22.08;16.52;;;31.50;36.10;;;;;;4920871;29;20122;-14
2022/10/14 11:37:38;;;;;;;25.30;20.00;;;31.70;36.50;;;;;;4936305;29;20556;-15
2022/10/14 11:40:20;;;;;;;23.38;18.75;;;31.70;36.00;;;;;;4936072;29;20028;-14
2022/10/14 11:43:05;;;;;;;21.27;16.17;;;31.40;36.30;;;;;;4936237;29;20036;-15
2022/10/14 11:45:40;;;;;;;22.00;17.08;;;31.20;35.80;;;;;;4936098;29;20571;-15
2022/10/14 11:48:39;;;;;;;18.77;15.10;;;31.20;35.80;;;;;;4935849;29;20048;-14
2022/10/14 11:51:23;;;;;;;22.20;16.60;;;31.40;35.50;;;;;;4936613;29;20040;-14
2022/10/14 11:53:58;;;;;;;26.23;20.27;;;31.60;36.00;;;;;;4935954;29;20032;-15
2022/10/14 11:56:45;;;;;;;22.70;18.42;;;31.70;34.30;;;;;;4935952;29;20044;-14
2022/10/14 11:59:20;;;;;;;27.05;21.55;;;31.60;35.00;;;;;;4935589;29;20028;-14
2022/10/14 12:01:51;;;;;;;22.70;18.73;;;31.50;35.00;;;;;;4938792;28;20039;-14
2022/10/14 12:04:39;;;;;;;19.33;16.83;;;31.10;35.80;;;;;;4974163;28;20469;-14
2022/10/14 12:07:22;;;;;;;26.67;21.95;;;30.60;36.30;;;;;;4994319;28;20096;-14
2022/10/14 12:09:56;;;;;;;23.27;17.73;;;30.40;37.00;;;;;;5015679;28;20359;-14
2022/10/14 12:12:25;;;;;;;22.02;18.30;;;30.30;37.20;;;;;;5015643;28;20501;-14
2022/10/14 12:14:59;;;;;;;21.92;17.52;;;30.40;37.20;;;;;;5014746;28;20046;-15
2022/10/14 12:17:41;;;;;;;22.85;18.35;;;30.50;37.60;;;;;;5015159;28;20026;-14
2022/10/14 12:20:33;;;;;;;24.45;19.52;;;30.60;37.30;;;;;;5015406;28;20109;-15
2022/10/14 12:23:01;;;;;;;20.67;17.27;;;30.90;36.40;;;;;;5009298;28;20394;-24
2022/10/14 12:25:35;;;;;;;21.42;18.20;;;31.30;36.80;;;;;;5015196;28;20037;-14
2022/10/14 12:28:02;;;;;;;28.10;21.33;;;31.70;35.50;;;;;;5014621;28;20044;-14
2022/10/14 12:30:38;;;;;;;19.90;16.55;;;31.90;34.00;;;;;;5014560;28;20042;-14
2022/10/14 12:33:12;;;;;;;24.55;17.67;;;31.70;34.50;;;;;;5014470;28;20022;-17
2022/10/14 12:36:00;;;;;;;26.63;18.52;;;31.90;33.60;;;;;;5014560;28;20137;-15
2022/10/14 12:38:30;;;;;;;22.15;17.13;;;31.90;33.60;;;;;;5014506;28;20030;-15
2022/10/14 12:41:39;;;;;;;21.02;16.90;;;31.90;34.20;;;;;;5014253;28;20498;-14
2022/10/14 12:44:13;;;;;;;24.60;18.75;;;32.00;33.50;;;;;;5014735;28;20029;-14
2022/10/14 12:46:44;;;;;;;23.70;17.95;;;32.10;33.70;;;;;;5013520;28;20038;-15
2022/10/14 12:49:32;;;;;;;24.27;18.80;;;32.00;34.40;;;;;;5014395;28;20026;-15
2022/10/14 12:52:07;;;;;;;22.30;18.08;;;32.00;33.50;;;;;;5014614;28;20040;-15
2022/10/14 12:54:36;;;;;;;25.52;18.67;;;32.00;34.70;;;;;;5014532;28;20030;-15
2022/10/14 12:57:46;;;;;;;21.52;17.27;;;32.10;34.80;;;;;;5014057;28;20057;-15
2022/10/14 13:00:21;;;;;;;21.17;16.35;;;32.20;34.70;;;;;;4973366;28;20041;-15